createdAt,value
2022-07-30T00:00:36.957Z,100406.00
2022-07-30T00:03:06.353Z,100403.56
2022-07-30T00:05:34.673Z,100403.56
2022-07-30T00:08:02.875Z,100390.03
2022-07-30T00:10:31.088Z,100385.13
2022-07-30T00:12:59.297Z,100382.91
2022-07-30T00:15:27.657Z,100382.25
2022-07-30T00:17:56.236Z,100375.50
2022-07-30T00:20:28.017Z,100374.66
2022-07-30T00:22:56.754Z,100376.25
2022-07-30T00:25:25.252Z,100376.41
2022-07-30T00:27:53.541Z,100369.50
2022-07-30T00:30:22.272Z,100372.38
2022-07-30T00:32:51.206Z,100369.44
2022-07-30T00:35:19.562Z,100376.81
2022-07-30T00:37:47.772Z,100370.72
2022-07-30T00:40:15.999Z,100368.22
2022-07-30T00:42:47.780Z,100374.16
2022-07-30T00:45:17.568Z,100370.66
2022-07-30T00:47:46.126Z,100381.91
2022-07-30T00:50:15.508Z,100375.38
2022-07-30T00:52:44.776Z,100380.66
2022-07-30T00:55:15.471Z,100379.09
2022-07-30T00:57:44.225Z,100376.41
2022-07-30T01:00:16.210Z,100383.59
2022-07-30T01:02:45.114Z,100383.59
2022-07-30T01:05:14.300Z,100380.13
2022-07-30T01:07:43.276Z,100379.38
2022-07-30T01:10:15.545Z,100377.94
2022-07-30T01:12:45.777Z,100383.59
2022-07-30T01:15:14.143Z,100382.03
2022-07-30T01:17:42.379Z,100380.13
2022-07-30T01:20:17.454Z,100384.81
2022-07-30T01:22:51.856Z,100384.38
2022-07-30T01:25:32.370Z,100392.56
2022-07-30T01:28:06.203Z,100393.28
2022-07-30T01:30:42.067Z,100385.69
2022-07-30T01:33:14.550Z,100394.81
2022-07-30T01:35:46.252Z,100386.16
2022-07-30T01:38:17.278Z,100381.66
2022-07-30T01:40:46.809Z,100372.06
2022-07-30T01:43:17.568Z,100385.50
2022-07-30T01:45:48.586Z,100379.00
2022-07-30T01:48:22.246Z,100387.03
2022-07-30T01:50:54.795Z,100377.00
2022-07-30T01:53:29.264Z,100367.59
2022-07-30T01:56:02.107Z,100376.94
2022-07-30T01:58:35.548Z,100368.28
2022-07-30T02:01:15.880Z,100360.13
2022-07-30T02:03:44.434Z,100365.25
2022-07-30T02:06:23.305Z,100363.88
2022-07-30T02:09:10.722Z,100361.72
2022-07-30T02:12:05.887Z,100358.22
2022-07-30T02:14:49.591Z,100352.66
2022-07-30T02:17:30.155Z,100359.31
2022-07-30T02:20:09.647Z,100368.22
2022-07-30T02:22:42.653Z,100368.59
2022-07-30T02:25:13.554Z,100359.22
2022-07-30T02:27:43.687Z,100354.78
2022-07-30T02:30:12.665Z,100363.09
2022-07-30T02:32:44.082Z,100363.78
2022-07-30T02:35:24.023Z,100368.50
2022-07-30T02:37:54.641Z,100365.47
2022-07-30T02:40:25.067Z,100362.81
2022-07-30T02:42:54.569Z,100361.72
2022-07-30T02:45:28.169Z,100360.13
2022-07-30T02:48:09.366Z,100361.75
2022-07-30T02:50:40.483Z,100359.22
2022-07-30T02:53:14.455Z,100364.34
2022-07-30T02:55:43.840Z,100376.72
2022-07-30T02:58:20.947Z,100370.13
2022-07-30T03:00:52.597Z,100363.56
2022-07-30T03:03:29.058Z,100361.72
2022-07-30T03:05:58.996Z,100354.63
2022-07-30T03:08:29.138Z,100360.47
2022-07-30T03:10:58.314Z,100354.63
2022-07-30T03:13:26.900Z,100361.66
2022-07-30T03:15:58.859Z,100365.66
2022-07-30T03:18:32.893Z,100372.25
2022-07-30T03:21:03.039Z,100378.53
2022-07-30T03:23:39.083Z,100384.66
2022-07-30T03:26:11.129Z,100382.06
2022-07-30T03:28:40.449Z,100386.38
2022-07-30T03:31:11.775Z,100390.88
2022-07-30T03:33:41.921Z,100381.53
2022-07-30T03:36:13.405Z,100388.28
2022-07-30T03:38:44.022Z,100383.53
2022-07-30T03:41:13.919Z,100385.19
2022-07-30T03:43:46.379Z,100387.69
2022-07-30T03:46:16.513Z,100387.94
2022-07-30T03:48:48.376Z,100383.31
2022-07-30T03:51:18.898Z,100379.63
2022-07-30T03:53:48.113Z,100386.69
2022-07-30T03:56:33.611Z,100394.38
2022-07-30T03:59:13.165Z,100402.88
2022-07-30T04:01:42.181Z,100394.91
2022-07-30T04:04:25.487Z,100400.69
2022-07-30T04:06:55.176Z,100401.88
2022-07-30T04:09:23.423Z,100409.16
2022-07-30T04:11:51.950Z,100418.50
2022-07-30T04:14:25.747Z,100413.09
2022-07-30T04:17:18.803Z,100422.31
2022-07-30T04:19:50.949Z,100419.31
2022-07-30T04:22:34.894Z,100427.09
2022-07-30T04:25:06.430Z,100421.50
2022-07-30T04:27:35.945Z,100431.38
2022-07-30T04:30:05.645Z,100434.19
2022-07-30T04:32:39.425Z,100440.41
2022-07-30T04:35:10.789Z,100434.28
2022-07-30T04:38:10.508Z,100424.00
2022-07-30T04:40:40.799Z,100429.47
2022-07-30T04:43:09.213Z,100423.22
2022-07-30T04:45:40.541Z,100424.50
2022-07-30T04:48:09.243Z,100426.41
2022-07-30T04:51:06.645Z,100422.72
2022-07-30T04:53:36.727Z,100418.78
2022-07-30T04:56:06.164Z,100417.34
2022-07-30T04:58:36.841Z,100416.13
2022-07-30T05:01:05.615Z,100418.13
2022-07-30T05:03:38.699Z,100418.69
2022-07-30T05:06:09.206Z,100422.50
2022-07-30T05:08:40.906Z,100418.06
2022-07-30T05:11:15.621Z,100409.56
2022-07-30T05:13:46.062Z,100411.25
2022-07-30T05:16:16.142Z,100414.88
2022-07-30T05:18:45.631Z,100415.66
2022-07-30T05:21:14.406Z,100414.81
2022-07-30T05:23:50.414Z,100424.94
2022-07-30T05:26:39.565Z,100420.03
2022-07-30T05:29:19.300Z,100411.69
2022-07-30T05:32:08.583Z,100400.16
2022-07-30T05:34:38.092Z,100411.06
2022-07-30T05:37:09.861Z,100414.97
2022-07-30T05:39:40.962Z,100408.66
2022-07-30T05:42:53.279Z,100413.41
2022-07-30T05:45:21.684Z,100416.69
2022-07-30T05:47:49.932Z,100421.22
2022-07-30T05:50:18.795Z,100423.94
2022-07-30T05:52:46.926Z,100424.16
2022-07-30T05:55:38.299Z,100426.22
2022-07-30T05:58:36.653Z,100419.47
2022-07-30T06:01:05.031Z,100430.34
2022-07-30T06:03:34.910Z,100436.88
2022-07-30T06:06:23.438Z,100436.88
2022-07-30T06:08:52.535Z,100435.84
2022-07-30T06:11:20.780Z,100438.72
2022-07-30T06:13:49.017Z,100440.53
2022-07-30T06:16:20.678Z,100438.91
2022-07-30T06:18:49.168Z,100440.56
2022-07-30T06:21:30.624Z,100439.91
2022-07-30T06:24:19.454Z,100460.59
2022-07-30T06:27:01.257Z,100449.88
2022-07-30T06:29:29.939Z,100456.41
2022-07-30T06:31:58.484Z,100457.59
2022-07-30T06:34:26.768Z,100454.53
2022-07-30T06:36:55.079Z,100453.19
2022-07-30T06:39:57.126Z,100459.84
2022-07-30T06:42:29.617Z,100441.03
2022-07-30T06:45:18.445Z,100443.91
2022-07-30T06:48:22.113Z,100454.91
2022-07-30T06:50:50.609Z,100453.97
2022-07-30T06:53:18.931Z,100453.59
2022-07-30T06:56:20.151Z,100451.88
2022-07-30T06:58:52.804Z,100453.53
2022-07-30T07:01:39.027Z,100447.47
2022-07-30T07:04:08.351Z,100449.25
2022-07-30T07:06:39.475Z,100449.44
2022-07-30T07:09:12.102Z,100447.16
2022-07-30T07:11:48.189Z,100450.81
2022-07-30T07:14:19.816Z,100449.59
2022-07-30T07:16:49.759Z,100446.69
2022-07-30T07:20:01.720Z,100446.22
2022-07-30T07:22:27.805Z,100445.41
2022-07-30T07:24:56.387Z,100438.81
2022-07-30T07:27:28.908Z,100440.78
2022-07-30T07:30:04.569Z,100450.94
2022-07-30T07:32:35.845Z,100453.72
2022-07-30T07:35:05.931Z,100454.38
2022-07-30T07:37:36.816Z,100443.31
2022-07-30T07:40:10.198Z,100454.53
2022-07-30T07:42:42.823Z,100455.00
2022-07-30T07:45:11.411Z,100450.38
2022-07-30T07:47:53.238Z,100449.69
2022-07-30T07:51:00.939Z,100457.09
2022-07-30T07:53:32.873Z,100446.56
2022-07-30T07:56:01.613Z,100455.16
2022-07-30T07:58:31.042Z,100464.28
2022-07-30T08:01:02.725Z,100465.75
2022-07-30T08:04:00.390Z,100462.97
2022-07-30T08:07:00.928Z,100462.13
2022-07-30T08:09:52.177Z,100469.84
2022-07-30T08:12:33.616Z,100469.75
2022-07-30T08:15:23.343Z,100472.41
2022-07-30T08:18:11.121Z,100478.91
2022-07-30T08:21:05.480Z,100479.09
2022-07-30T08:23:39.694Z,100480.16
2022-07-30T08:26:10.648Z,100480.75
2022-07-30T08:28:38.924Z,100483.56
2022-07-30T08:31:09.428Z,100483.03
2022-07-30T08:33:37.620Z,100484.13
2022-07-30T08:36:09.718Z,100486.25
2022-07-30T08:38:40.055Z,100490.69
2022-07-30T08:41:09.749Z,100486.19
2022-07-30T08:43:42.049Z,100481.28
2022-07-30T08:46:12.748Z,100482.00
2022-07-30T08:49:07.898Z,100484.16
2022-07-30T08:51:40.206Z,100484.53
2022-07-30T08:54:32.411Z,100482.00
2022-07-30T08:57:00.957Z,100489.19
2022-07-30T08:59:52.970Z,100487.97
2022-07-30T09:02:25.956Z,100483.47
2022-07-30T09:05:06.964Z,100483.25
2022-07-30T09:07:35.865Z,100484.25
2022-07-30T09:10:07.290Z,100484.47
2022-07-30T09:12:44.464Z,100485.09
2022-07-30T09:15:16.860Z,100494.31
2022-07-30T09:17:51.293Z,100488.28
2022-07-30T09:20:25.866Z,100491.34
2022-07-30T09:22:58.748Z,100484.03
2022-07-30T09:25:49.774Z,100486.53
2022-07-30T09:28:36.558Z,100484.16
2022-07-30T09:31:20.973Z,100488.06
2022-07-30T09:34:25.906Z,100490.19
2022-07-30T09:37:14.330Z,100484.59
2022-07-30T09:40:18.830Z,100489.34
2022-07-30T09:43:10.752Z,100478.34
2022-07-30T09:45:57.094Z,100484.47
2022-07-30T09:48:31.518Z,100480.34
2022-07-30T09:50:59.838Z,100487.28
2022-07-30T09:53:32.986Z,100471.69
2022-07-30T09:56:02.046Z,100474.06
2022-07-30T09:58:45.513Z,100471.94
2022-07-30T10:01:15.189Z,100480.09
2022-07-30T10:04:09.682Z,100473.56
2022-07-30T10:06:58.319Z,100465.50
2022-07-30T10:09:37.487Z,100457.88
2022-07-30T10:12:11.229Z,100461.69
2022-07-30T10:14:46.505Z,100459.50
2022-07-30T10:17:17.314Z,100460.63
2022-07-30T10:20:09.747Z,100456.53
2022-07-30T10:22:59.956Z,100458.69
2022-07-30T10:25:54.923Z,100450.59
2022-07-30T10:28:46.100Z,100459.00
2022-07-30T10:31:46.851Z,100456.00
2022-07-30T10:34:04.355Z,100453.59
2022-07-30T10:36:34.619Z,100456.00
2022-07-30T10:39:03.822Z,100457.88
2022-07-30T10:42:04.245Z,100457.59
2022-07-30T10:44:53.798Z,100449.56
2022-07-30T10:47:29.738Z,100453.78
2022-07-30T10:50:15.558Z,100444.56
2022-07-30T10:52:55.886Z,100447.47
2022-07-30T10:55:36.607Z,100445.59
2022-07-30T10:58:14.195Z,100444.44
2022-07-30T11:00:53.495Z,100446.25
2022-07-30T11:03:41.399Z,100450.38
2022-07-30T11:06:16.219Z,100447.41
2022-07-30T11:08:48.202Z,100446.44
2022-07-30T11:11:59.996Z,100448.25
2022-07-30T11:14:13.812Z,100449.00
2022-07-30T11:16:42.625Z,100443.81
2022-07-30T11:19:56.839Z,100438.91
2022-07-30T11:22:40.475Z,100433.44
2022-07-30T11:25:13.441Z,100442.66
2022-07-30T11:27:48.518Z,100434.88
2022-07-30T11:30:19.659Z,100444.25
2022-07-30T11:33:05.904Z,100442.56
2022-07-30T11:35:35.581Z,100437.97
2022-07-30T11:38:19.707Z,100437.13
2022-07-30T11:40:50.646Z,100440.59
2022-07-30T11:43:34.841Z,100441.25
2022-07-30T11:46:18.037Z,100421.69
2022-07-30T11:49:08.530Z,100422.31
2022-07-30T11:51:45.938Z,100423.28
2022-07-30T11:54:17.293Z,100421.28
2022-07-30T11:57:04.787Z,100420.94
2022-07-30T11:59:52.332Z,100419.72
2022-07-30T12:02:28.117Z,100419.69
2022-07-30T12:04:56.394Z,100419.78
2022-07-30T12:07:25.280Z,100425.53
2022-07-30T12:10:13.375Z,100410.47
2022-07-30T12:12:45.660Z,100410.47
2022-07-30T12:15:33.583Z,100404.16
2022-07-30T12:18:25.223Z,100413.84
2022-07-30T12:21:05.694Z,100413.50
2022-07-30T12:23:34.436Z,100408.59
2022-07-30T12:26:04.162Z,100406.72
2022-07-30T12:28:34.384Z,100411.50
2022-07-30T12:31:06.954Z,100417.25
2022-07-30T12:33:38.312Z,100415.50
2022-07-30T12:36:10.502Z,100408.75
2022-07-30T12:38:48.811Z,100407.84
2022-07-30T12:41:20.664Z,100394.81
2022-07-30T12:43:56.016Z,100394.44
2022-07-30T12:46:28.223Z,100395.88
2022-07-30T12:49:05.169Z,100400.72
2022-07-30T12:51:51.793Z,100397.72
2022-07-30T12:54:20.641Z,100398.97
2022-07-30T12:57:07.339Z,100403.66
2022-07-30T12:59:38.566Z,100395.72
2022-07-30T13:02:06.887Z,100398.38
2022-07-30T13:04:39.987Z,100386.91
2022-07-30T13:07:23.238Z,100396.50
2022-07-30T13:10:18.823Z,100395.28
2022-07-30T13:12:47.138Z,100379.50
2022-07-30T13:15:20.011Z,100383.25
2022-07-30T13:17:48.491Z,100378.91
2022-07-30T13:20:19.504Z,100374.28
2022-07-30T13:22:47.906Z,100377.34
2022-07-30T13:25:16.152Z,100374.59
2022-07-30T13:27:44.515Z,100376.97
2022-07-30T13:30:13.072Z,100365.25
2022-07-30T13:32:41.294Z,100367.22
2022-07-30T13:35:09.772Z,100367.16
2022-07-30T13:37:38.833Z,100364.50
2022-07-30T13:40:07.994Z,100368.28
2022-07-30T13:42:36.210Z,100360.47
2022-07-30T13:45:04.715Z,100358.44
2022-07-30T13:47:32.838Z,100350.97
2022-07-30T13:50:01.034Z,100353.44
2022-07-30T13:52:29.219Z,100355.09
2022-07-30T13:54:57.493Z,100346.19
2022-07-30T13:57:25.739Z,100347.38
2022-07-30T13:59:53.990Z,100348.53
2022-07-30T14:02:22.125Z,100351.44
2022-07-30T14:04:50.344Z,100344.53
2022-07-30T14:07:18.558Z,100334.88
2022-07-30T14:09:49.286Z,100328.47
2022-07-30T14:12:20.867Z,100335.66
2022-07-30T14:14:49.030Z,100342.28
2022-07-30T14:17:17.147Z,100334.97
2022-07-30T14:19:46.820Z,100334.38
2022-07-30T14:22:14.973Z,100323.03
2022-07-30T14:24:43.216Z,100327.41
2022-07-30T14:27:11.547Z,100325.31
2022-07-30T14:29:42.337Z,100335.47
2022-07-30T14:32:10.477Z,100327.28
2022-07-30T14:34:38.704Z,100323.03
2022-07-30T14:37:09.669Z,100324.78
2022-07-30T14:39:42.828Z,100343.69
2022-07-30T14:42:11.332Z,100338.53
2022-07-30T14:44:39.555Z,100343.28
2022-07-30T14:47:08.311Z,100340.63
2022-07-30T14:49:36.690Z,100337.19
2022-07-30T14:52:04.985Z,100330.94
2022-07-30T14:54:33.319Z,100339.59
2022-07-30T14:57:01.745Z,100337.63
2022-07-30T14:59:30.823Z,100337.78
2022-07-30T15:01:58.992Z,100330.78
2022-07-30T15:04:27.274Z,100324.59
2022-07-30T15:06:55.923Z,100338.16
2022-07-30T15:09:24.180Z,100327.41
2022-07-30T15:12:23.687Z,100331.94
2022-07-30T15:14:41.758Z,100320.38
2022-07-30T15:17:11.938Z,100323.13
2022-07-30T15:19:50.301Z,100327.69
2022-07-30T15:22:22.524Z,100328.78
2022-07-30T15:24:51.709Z,100326.38
2022-07-30T15:27:22.389Z,100319.13
2022-07-30T15:29:55.892Z,100327.75
2022-07-30T15:32:26.508Z,100329.41
2022-07-30T15:34:58.705Z,100331.88
2022-07-30T15:37:27.478Z,100331.34
2022-07-30T15:39:55.643Z,100333.28
2022-07-30T15:42:23.859Z,100333.53
2022-07-30T15:45:15.426Z,100334.63
2022-07-30T15:47:40.300Z,100338.66
2022-07-30T15:50:09.315Z,100326.22
2022-07-30T15:52:37.862Z,100329.50
2022-07-30T15:55:07.300Z,100316.78
2022-07-30T15:57:35.887Z,100322.75
2022-07-30T16:00:07.277Z,100327.06
2022-07-30T16:02:41.400Z,100331.94
2022-07-30T16:05:14.103Z,100326.25
2022-07-30T16:07:43.397Z,100334.09
2022-07-30T16:10:11.828Z,100326.00
2022-07-30T16:12:41.961Z,100337.88
2022-07-30T16:15:10.519Z,100332.75
2022-07-30T16:17:38.800Z,100328.97
2022-07-30T16:20:07.759Z,100324.94
2022-07-30T16:22:36.393Z,100326.00
2022-07-30T16:25:04.937Z,100329.78
2022-07-30T16:27:33.434Z,100325.19
2022-07-30T16:30:01.566Z,100323.03
2022-07-30T16:32:29.724Z,100330.88
2022-07-30T16:34:57.851Z,100333.56
2022-07-30T16:37:26.155Z,100330.34
2022-07-30T16:39:54.410Z,100337.34
2022-07-30T16:42:22.620Z,100335.75
2022-07-30T16:44:50.779Z,100336.56
2022-07-30T16:47:18.926Z,100338.47
2022-07-30T16:49:47.161Z,100338.19
2022-07-30T16:52:17.517Z,100337.91
2022-07-30T16:54:45.814Z,100340.06
2022-07-30T16:57:14.243Z,100337.31
2022-07-30T16:59:43.707Z,100338.66
2022-07-30T17:02:12.317Z,100335.19
2022-07-30T17:04:43.363Z,100334.13
2022-07-30T17:07:11.682Z,100340.28
2022-07-30T17:09:39.855Z,100337.31
2022-07-30T17:12:12.328Z,100343.53
2022-07-30T17:14:43.495Z,100351.09
2022-07-30T17:17:14.484Z,100354.59
2022-07-30T17:19:45.284Z,100347.03
2022-07-30T17:22:13.576Z,100358.63
2022-07-30T17:24:42.046Z,100358.34
2022-07-30T17:27:10.266Z,100357.25
2022-07-30T17:29:49.864Z,100359.69
2022-07-30T17:32:20.367Z,100354.81
2022-07-30T17:34:50.978Z,100365.59
2022-07-30T17:37:19.510Z,100352.56
2022-07-30T17:40:06.009Z,100367.13
2022-07-30T17:42:38.353Z,100365.53
2022-07-30T17:45:10.623Z,100364.16
2022-07-30T17:47:39.860Z,100369.81
2022-07-30T17:50:09.027Z,100373.84
2022-07-30T17:52:37.937Z,100381.63
2022-07-30T17:55:11.129Z,100379.50
2022-07-30T17:57:39.785Z,100380.84
2022-07-30T18:00:09.541Z,100387.00
2022-07-30T18:02:37.761Z,100390.25
2022-07-30T18:05:06.376Z,100389.69
2022-07-30T18:07:35.629Z,100384.56
2022-07-30T18:10:05.154Z,100388.03
2022-07-30T18:12:34.336Z,100388.56
2022-07-30T18:15:03.336Z,100386.41
2022-07-30T18:17:32.016Z,100402.00
2022-07-30T18:20:00.267Z,100393.88
2022-07-30T18:22:32.086Z,100393.81
2022-07-30T18:25:00.668Z,100397.00
2022-07-30T18:27:29.883Z,100395.03
2022-07-30T18:29:58.496Z,100390.34
2022-07-30T18:32:27.375Z,100402.63
2022-07-30T18:34:55.619Z,100403.53
2022-07-30T18:37:23.742Z,100396.91
2022-07-30T18:39:51.944Z,100404.31
2022-07-30T18:42:22.877Z,100414.38
2022-07-30T18:44:52.029Z,100411.97
2022-07-30T18:47:20.219Z,100409.63
2022-07-30T18:49:50.143Z,100411.53
2022-07-30T18:52:18.471Z,100418.31
2022-07-30T18:54:46.911Z,100424.09
2022-07-30T18:57:15.487Z,100428.47
2022-07-30T18:59:43.897Z,100433.38
2022-07-30T19:02:12.054Z,100433.22
2022-07-30T19:04:40.341Z,100438.66
2022-07-30T19:07:08.574Z,100442.22
2022-07-30T19:09:36.766Z,100448.69
2022-07-30T19:12:05.814Z,100449.09
2022-07-30T19:14:34.606Z,100454.25
2022-07-30T19:17:02.880Z,100463.16
2022-07-30T19:19:42.212Z,100462.41
2022-07-30T19:22:10.504Z,100463.78
2022-07-30T19:24:39.232Z,100474.28
2022-07-30T19:27:12.310Z,100473.28
2022-07-30T19:29:42.494Z,100480.63
2022-07-30T19:32:10.980Z,100486.81
2022-07-30T19:34:40.531Z,100482.38
2022-07-30T19:37:08.843Z,100497.91
2022-07-30T19:39:37.612Z,100498.59
2022-07-30T19:42:27.573Z,100501.81
2022-07-30T19:44:55.792Z,100498.47
2022-07-30T19:47:26.198Z,100500.41
2022-07-30T19:49:55.562Z,100499.47
2022-07-30T19:52:25.511Z,100501.78
2022-07-30T19:54:55.026Z,100506.19
2022-07-30T19:57:53.137Z,100501.16
2022-07-30T20:00:15.677Z,100509.75
2022-07-30T20:02:53.887Z,100513.56
2022-07-30T20:05:24.883Z,100514.13
2022-07-30T20:07:53.306Z,100521.22
2022-07-30T20:10:24.077Z,100522.91
2022-07-30T20:12:52.354Z,100519.72
2022-07-30T20:15:20.685Z,100523.88
2022-07-30T20:17:48.886Z,100520.25
2022-07-30T20:20:17.162Z,100523.59
2022-07-30T20:22:54.519Z,100528.81
2022-07-30T20:25:22.735Z,100532.53
2022-07-30T20:27:51.395Z,100537.88
2022-07-30T20:30:24.994Z,100542.41
2022-07-30T20:32:54.250Z,100544.28
2022-07-30T20:35:26.140Z,100551.25
2022-07-30T20:37:57.470Z,100552.31
2022-07-30T20:40:27.067Z,100548.81
2022-07-30T20:42:59.995Z,100554.63
2022-07-30T20:45:40.301Z,100562.66
2022-07-30T20:48:17.478Z,100556.69
2022-07-30T20:50:53.911Z,100569.69
2022-07-30T20:53:23.455Z,100570.28
2022-07-30T20:55:51.725Z,100575.19
2022-07-30T20:58:25.385Z,100575.13
2022-07-30T21:00:54.278Z,100579.00
2022-07-30T21:03:23.124Z,100578.53
2022-07-30T21:05:52.487Z,100586.94
2022-07-30T21:08:25.390Z,100585.69
2022-07-30T21:10:54.948Z,100591.88
2022-07-30T21:13:25.166Z,100596.31
2022-07-30T21:16:02.560Z,100591.97
2022-07-30T21:18:32.872Z,100598.97
2022-07-30T21:21:05.010Z,100598.19
2022-07-30T21:23:34.265Z,100598.41
2022-07-30T21:26:07.087Z,100597.00
2022-07-30T21:28:42.459Z,100608.38
2022-07-30T21:31:10.968Z,100603.63
2022-07-30T21:33:39.370Z,100603.16
2022-07-30T21:36:10.199Z,100602.94
2022-07-30T21:38:42.957Z,100607.69
2022-07-30T21:41:15.101Z,100600.56
2022-07-30T21:43:44.565Z,100604.94
2022-07-30T21:46:13.757Z,100607.84
2022-07-30T21:48:45.495Z,100625.53
2022-07-30T21:51:15.693Z,100618.03
2022-07-30T21:53:45.010Z,100620.78
2022-07-30T21:56:15.810Z,100626.53
2022-07-30T21:58:44.703Z,100614.03
2022-07-30T22:01:17.783Z,100635.28
2022-07-30T22:04:03.453Z,100633.50
2022-07-30T22:06:41.267Z,100628.88
2022-07-30T22:09:19.324Z,100635.66
2022-07-30T22:11:55.547Z,100632.72
2022-07-30T22:14:24.800Z,100636.00
2022-07-30T22:16:54.083Z,100640.63
2022-07-30T22:19:22.941Z,100642.34
2022-07-30T22:21:51.788Z,100643.03
2022-07-30T22:24:29.854Z,100639.25
2022-07-30T22:27:12.576Z,100645.50
2022-07-30T22:29:44.049Z,100645.19
2022-07-30T22:32:12.839Z,100640.72
2022-07-30T22:34:41.123Z,100645.88
2022-07-30T22:37:12.783Z,100646.47
2022-07-30T22:39:50.949Z,100636.59
2022-07-30T22:42:24.539Z,100639.94
2022-07-30T22:44:54.652Z,100642.06
2022-07-30T22:47:50.909Z,100654.03
2022-07-30T22:50:12.883Z,100652.47
2022-07-30T22:52:48.974Z,100650.88
2022-07-30T22:55:27.883Z,100655.47
2022-07-30T22:58:01.582Z,100651.22
2022-07-30T23:00:29.768Z,100652.97
2022-07-30T23:02:58.292Z,100657.66
2022-07-30T23:05:26.748Z,100657.50
2022-07-30T23:07:55.441Z,100657.78
2022-07-30T23:10:25.586Z,100651.47
2022-07-30T23:12:56.060Z,100660.56
2022-07-30T23:15:24.660Z,100653.22
2022-07-30T23:17:53.221Z,100660.28
2022-07-30T23:20:21.792Z,100661.31
2022-07-30T23:22:50.389Z,100653.31
2022-07-30T23:25:18.727Z,100661.53
2022-07-30T23:27:46.987Z,100654.38
2022-07-30T23:30:15.845Z,100656.66
2022-07-30T23:32:44.099Z,100658.06
2022-07-30T23:35:12.463Z,100664.25
2022-07-30T23:37:48.288Z,100653.97
2022-07-30T23:40:20.843Z,100656.47
2022-07-30T23:42:50.868Z,100657.50
2022-07-30T23:45:21.883Z,100655.88
2022-07-30T23:48:00.900Z,100657.38
2022-07-30T23:50:35.628Z,100660.69
2022-07-30T23:53:04.952Z,100661.31
2022-07-30T23:55:33.410Z,100660.09
2022-07-30T23:58:01.544Z,100658.91
